Time;durP1;ratioP1;P1;durP2;ratioP2;P2;SDS_P1;SDS_P2;PMS_P1;PMS_P2;Temp;Humidity;BMP_temperature;BMP_pressure;BME280_temperature;BME280_humidity;BME280_pressure;Samples;Min_cycle;Max_cycle;Signal;HPM_P1;HPM_P2
2021/04/09 00:01:07;;;;;;;3.92;2.83;;;;;;;20.83;50.93;101607.08;1722527;81;21191;-61
2021/04/09 00:03:34;;;;;;;4.20;2.50;;;;;;;20.84;50.84;101610.91;1718093;82;21212;-61
2021/04/09 00:06:00;;;;;;;3.87;2.87;;;;;;;20.87;50.80;101610.89;1710726;82;21199;-61
2021/04/09 00:08:27;;;;;;;4.50;2.90;;;;;;;20.87;50.74;101606.18;1720224;82;21204;-61
2021/04/09 00:10:53;;;;;;;4.22;2.77;;;;;;;20.88;50.68;101602.83;1718425;82;21277;-61
2021/04/09 00:13:20;;;;;;;4.33;2.95;;;;;;;20.89;50.66;101608.07;1724091;82;21208;-61
2021/04/09 00:15:46;;;;;;;4.60;2.90;;;;;;;20.92;50.63;101606.08;1721337;82;21151;-61
2021/04/09 00:18:13;;;;;;;3.30;2.90;;;;;;;20.94;50.56;101613.53;1722161;82;22092;-61
2021/04/09 00:20:40;;;;;;;4.60;2.80;;;;;;;20.95;50.51;101611.59;1719660;82;21612;-61
2021/04/09 00:23:07;;;;;;;2.92;2.40;;;;;;;20.95;50.47;101615.19;1723759;82;21236;-61
2021/04/09 00:25:34;;;;;;;6.78;3.37;;;;;;;20.94;50.46;101606.61;1719776;82;21248;-61
2021/04/09 00:28:00;;;;;;;3.95;2.55;;;;;;;20.94;50.44;101617.67;1727740;81;21421;-61
2021/04/09 00:30:28;;;;;;;3.67;2.55;;;;;;;20.94;50.42;101617.67;1719795;82;21263;-61
2021/04/09 00:32:54;;;;;;;5.22;2.77;;;;;;;20.95;50.38;101617.13;1708793;82;21209;-60
2021/04/09 00:35:21;;;;;;;3.83;2.60;;;;;;;20.97;50.36;101621.78;1710577;82;21149;-60
2021/04/09 00:37:48;;;;;;;4.25;3.15;;;;;;;20.97;50.31;101627.31;1716533;82;21295;-60
2021/04/09 00:40:15;;;;;;;4.28;2.83;;;;;;;20.96;50.27;101627.07;1717118;82;21251;-61
2021/04/09 00:42:41;;;;;;;3.87;2.70;;;;;;;20.94;50.28;101625.16;1710545;82;21317;-60
2021/04/09 00:45:09;;;;;;;5.50;2.92;;;;;;;20.92;50.24;101624.06;1709599;82;21227;-61
2021/04/09 00:47:36;;;;;;;4.53;2.98;;;;;;;20.92;50.25;101625.44;1715650;82;21207;-61
2021/04/09 00:50:04;;;;;;;4.97;2.98;;;;;;;20.93;50.21;101638.16;1715053;82;21219;-60
2021/04/09 00:52:32;;;;;;;3.45;2.42;;;;;;;20.93;50.17;101636.77;1713058;82;21243;-60
2021/04/09 00:55:00;;;;;;;4.20;2.90;;;;;;;20.92;50.15;101642.03;1719276;82;21225;-60
2021/04/09 00:57:26;;;;;;;3.60;2.60;;;;;;;20.92;50.11;101638.45;1642349;83;21806;-61
2021/04/09 00:59:53;;;;;;;3.90;2.55;;;;;;;20.89;50.08;101648.17;1635582;85;21227;-60
2021/04/09 01:02:20;;;;;;;3.70;2.80;;;;;;;20.88;50.07;101648.47;1708459;82;21151;-60
2021/04/09 01:04:47;;;;;;;5.60;2.95;;;;;;;20.89;50.06;101650.12;1715030;82;21191;-60
2021/04/09 01:07:13;;;;;;;3.85;2.90;;;;;;;20.89;50.04;101648.17;1709506;82;22083;-60
2021/04/09 01:09:40;;;;;;;4.37;3.00;;;;;;;20.90;49.98;101656.75;1709486;82;21225;-61
2021/04/09 01:12:08;;;;;;;5.25;3.10;;;;;;;20.88;49.96;101650.67;1738204;81;21475;-60
2021/04/09 01:14:35;;;;;;;4.78;2.90;;;;;;;20.86;49.93;101660.41;1732203;81;21427;-61
2021/04/09 01:17:19;;;;;;;3.58;2.67;;;;;;;20.84;49.91;101668.16;1745454;81;21195;-61
2021/04/09 01:20:16;;;;;;;4.75;2.52;;;;;;;20.81;49.91;101665.45;1733691;81;21737;-60
2021/04/09 01:23:15;;;;;;;4.47;3.15;;;;;;;20.81;49.91;101666.00;1727587;81;21255;-61
2021/04/09 01:26:33;;;;;;;4.00;3.50;;;;;;;20.81;49.87;101675.13;1781083;78;21193;-61
2021/04/09 01:29:25;;;;;;;3.80;2.80;;;;;;;20.80;49.83;101682.33;1786381;78;21276;-61
2021/04/09 01:32:06;;;;;;;5.17;2.98;;;;;;;20.77;49.77;101685.70;1785052;78;21157;-61
2021/04/09 01:34:37;;;;;;;5.17;2.87;;;;;;;20.72;49.76;101681.06;1787095;78;21648;-61
2021/04/09 01:37:18;;;;;;;4.58;3.10;;;;;;;20.71;49.77;101686.91;1772340;78;21794;-61
2021/04/09 01:39:58;;;;;;;3.95;2.70;;;;;;;20.70;49.79;101684.70;1784754;78;28408;-60
2021/04/09 01:42:25;;;;;;;4.92;2.60;;;;;;;20.70;49.74;101687.46;1751793;80;21510;-60
2021/04/09 01:44:53;;;;;;;4.15;2.92;;;;;;;20.69;49.73;101689.12;1749125;80;22346;-62
2021/04/09 01:47:24;;;;;;;3.70;2.60;;;;;;;20.67;49.70;101692.73;1745650;80;21133;-60
2021/04/09 01:49:56;;;;;;;4.28;2.70;;;;;;;20.63;49.70;101692.52;1752654;80;21161;-60
2021/04/09 01:52:23;;;;;;;4.00;2.72;;;;;;;20.62;49.68;101695.04;1750483;80;21189;-60
2021/04/09 01:54:50;;;;;;;4.55;3.12;;;;;;;20.62;49.68;101690.89;1746650;80;21229;-60
2021/04/09 01:57:19;;;;;;;3.62;2.67;;;;;;;20.62;49.66;101688.68;1773059;80;21234;-60
2021/04/09 01:59:45;;;;;;;4.22;2.77;;;;;;;20.63;49.61;101705.51;1768590;80;22672;-60
2021/04/09 02:02:12;;;;;;;3.83;3.00;;;;;;;20.60;49.59;101702.79;1758316;80;21216;-60
2021/04/09 02:04:38;;;;;;;4.00;2.70;;;;;;;20.59;49.53;101708.61;1754946;80;21212;-60
2021/04/09 02:07:05;;;;;;;4.17;2.80;;;;;;;20.56;49.54;101703.12;1768728;79;21223;-60
2021/04/09 02:09:32;;;;;;;4.12;2.70;;;;;;;20.55;49.52;101704.78;1759708;80;21241;-59
2021/04/09 02:11:59;;;;;;;3.20;2.55;;;;;;;20.56;49.55;101707.82;1710973;81;21210;-59
2021/04/09 02:14:25;;;;;;;3.77;2.50;;;;;;;20.56;49.49;101707.27;1750956;80;22242;-59
2021/04/09 02:16:52;;;;;;;4.83;3.02;;;;;;;20.56;49.44;101710.59;1753887;80;21217;-59
2021/04/09 02:19:19;;;;;;;4.65;2.77;;;;;;;20.54;49.38;101712.25;1752397;80;21269;-61
2021/04/09 02:21:46;;;;;;;4.45;2.72;;;;;;;20.51;49.37;101716.45;1751496;80;21181;-61
2021/04/09 02:24:13;;;;;;;4.17;2.58;;;;;;;20.49;49.34;101717.31;1760032;80;21653;-61
2021/04/09 02:26:39;;;;;;;4.00;2.70;;;;;;;20.48;49.34;101719.81;1759843;79;21191;-61
2021/04/09 02:29:06;;;;;;;4.55;2.75;;;;;;;20.50;49.33;101729.17;1762646;79;21167;-61
2021/04/09 02:31:32;;;;;;;3.62;2.65;;;;;;;20.49;49.29;101731.69;1757969;79;21202;-60
2021/04/09 02:33:58;;;;;;;4.10;2.50;;;;;;;20.50;49.30;101731.38;1744984;79;21159;-62
2021/04/09 02:36:29;;;;;;;4.00;2.60;;;;;;;20.51;49.27;101728.88;1736456;80;21224;-64
2021/04/09 02:39:14;;;;;;;;;;;;;;;20.52;49.29;101732.47;1769928;80;21178;-62
2021/04/09 02:41:43;;;;;;;2.52;1.80;;;;;;;20.55;49.29;101733.81;1762525;80;20237;-62
2021/04/09 02:44:10;;;;;;;3.58;2.70;;;;;;;20.58;49.26;101734.05;1716158;81;21791;-63
2021/04/09 02:47:09;;;;;;;3.45;2.52;;;;;;;20.62;49.22;101732.36;1769529;78;21139;-63
2021/04/09 02:49:42;;;;;;;5.92;3.05;;;;;;;20.66;49.18;101731.20;1762120;79;22289;-63
2021/04/09 02:52:16;;;;;;;5.35;3.22;;;;;;;20.69;49.14;101745.27;1760724;79;21042;-62
2021/04/09 02:54:49;;;;;;;8.90;3.58;;;;;;;20.72;49.12;101740.52;1762449;79;21190;-64
2021/04/09 02:57:16;;;;;;;4.25;2.55;;;;;;;20.74;49.12;101745.20;1761938;79;21166;-63
2021/04/09 02:59:42;;;;;;;4.08;2.52;;;;;;;20.79;49.12;101752.62;1762418;79;21140;-63
2021/04/09 03:02:09;;;;;;;3.22;2.25;;;;;;;20.81;49.10;101749.80;1766928;79;21217;-65
2021/04/09 03:04:35;;;;;;;4.45;2.58;;;;;;;20.85;49.08;101750.86;1730246;80;21153;-65
2021/04/09 03:07:02;;;;;;;5.47;2.83;;;;;;;20.87;49.06;101747.25;1760085;79;21485;-65
2021/04/09 03:09:30;;;;;;;17.05;4.67;;;;;;;20.89;49.05;101756.05;1741892;80;21526;-64
2021/04/09 03:11:56;;;;;;;3.60;2.10;;;;;;;20.90;49.04;101757.71;1706965;82;21210;-64
2021/04/09 03:14:23;;;;;;;4.05;2.25;;;;;;;20.91;49.05;101754.39;1733035;80;21557;-64
2021/04/09 03:16:57;;;;;;;2.95;2.15;;;;;;;20.94;49.04;101764.85;1740128;80;21541;-64
2021/04/09 03:19:23;;;;;;;2.87;1.95;;;;;;;20.96;49.01;101762.04;1742366;80;21198;-65
2021/04/09 03:21:49;;;;;;;3.72;2.15;;;;;;;20.96;49.01;101766.19;1743495;80;21159;-65
2021/04/09 03:24:16;;;;;;;3.47;2.33;;;;;;;20.96;48.98;101769.54;1745194;80;21142;-65
2021/04/09 03:26:42;;;;;;;3.10;2.20;;;;;;;20.95;49.01;101777.57;1757243;79;21201;-65
2021/04/09 03:29:09;;;;;;;3.75;2.22;;;;;;;20.92;49.00;101769.28;1755103;79;21181;-65
2021/04/09 03:31:35;;;;;;;3.22;1.98;;;;;;;20.92;49.02;101777.58;1763703;79;21194;-65
2021/04/09 03:34:02;;;;;;;3.80;2.33;;;;;;;20.93;49.05;101783.39;1750092;80;21189;-65
2021/04/09 03:36:28;;;;;;;3.02;2.20;;;;;;;20.95;49.03;101783.10;1741613;80;21557;-65
2021/04/09 03:38:55;;;;;;;4.45;2.55;;;;;;;20.95;49.00;101790.84;1762243;79;21581;-65
2021/04/09 03:41:21;;;;;;;5.05;3.00;;;;;;;20.94;48.98;101790.58;1727227;81;21206;-64
2021/04/09 03:43:48;;;;;;;4.47;2.60;;;;;;;20.95;48.95;101794.17;1761566;79;21237;-65
2021/04/09 03:46:14;;;;;;;6.53;2.77;;;;;;;20.92;48.92;101802.48;1759402;79;21747;-65
2021/04/09 03:48:41;;;;;;;5.37;2.92;;;;;;;20.92;48.93;101805.25;1745579;80;21181;-66
2021/04/09 03:51:07;;;;;;;6.65;2.25;;;;;;;20.94;48.94;101804.96;1734444;80;21220;-67
2021/04/09 03:53:34;;;;;;;6.08;2.47;;;;;;;20.96;48.90;101804.92;1730187;80;21260;-66
2021/04/09 03:56:00;;;;;;;7.75;2.80;;;;;;;20.98;48.91;101806.84;1767787;80;21203;-57
2021/04/09 03:58:27;;;;;;;3.62;2.60;;;;;;;20.98;48.88;101811.55;1762568;80;21587;-57
2021/04/09 04:00:54;;;;;;;4.67;2.15;;;;;;;20.96;48.86;101806.30;1764480;80;21589;-58
2021/04/09 04:03:20;;;;;;;3.95;2.60;;;;;;;20.91;48.85;101816.07;1763264;80;21624;-58
2021/04/09 04:05:47;;;;;;;3.33;2.20;;;;;;;20.87;48.85;101819.72;1763441;80;21060;-58
2021/04/09 04:08:13;;;;;;;5.17;2.35;;;;;;;20.83;48.90;101822.27;1759406;80;21173;-58
2021/04/09 04:10:40;;;;;;;3.37;2.37;;;;;;;20.82;48.89;101823.37;1750728;81;21194;-58
2021/04/09 04:13:06;;;;;;;4.08;2.30;;;;;;;20.81;48.86;101833.34;1751886;81;21573;-57
2021/04/09 04:15:33;;;;;;;4.17;2.52;;;;;;;20.78;48.84;101834.76;1749226;80;21831;-58
2021/04/09 04:18:00;;;;;;;3.45;2.20;;;;;;;20.76;48.81;101835.59;1759824;80;21236;-58
2021/04/09 04:20:26;;;;;;;5.15;2.52;;;;;;;20.74;48.83;101836.47;1760170;80;21461;-58
2021/04/09 04:22:53;;;;;;;3.55;2.42;;;;;;;20.74;48.82;101843.94;1758367;80;21129;-58
2021/04/09 04:25:20;;;;;;;3.45;2.00;;;;;;;20.75;48.86;101844.20;1760338;80;21165;-58
2021/04/09 04:27:47;;;;;;;3.87;2.15;;;;;;;20.78;48.84;101849.97;1757907;80;22107;-59
2021/04/09 04:30:15;;;;;;;3.00;1.70;;;;;;;20.81;48.78;101841.63;1765204;80;21185;-59
2021/04/09 04:32:42;;;;;;;3.60;2.20;;;;;;;20.83;48.73;101847.70;1761678;80;21123;-57
2021/04/09 04:35:10;;;;;;;3.02;1.90;;;;;;;20.83;48.69;101847.70;1771088;80;21170;-57
2021/04/09 04:37:37;;;;;;;3.27;2.15;;;;;;;20.83;48.67;101851.30;1775415;79;21148;-57
2021/04/09 04:40:05;;;;;;;2.40;1.60;;;;;;;20.83;48.64;101862.37;1783640;79;21229;-58
2021/04/09 04:42:32;;;;;;;3.10;2.05;;;;;;;20.85;48.62;101861.50;1774453;79;21513;-58
2021/04/09 04:44:58;;;;;;;2.08;1.42;;;;;;;20.88;48.60;101866.98;1779144;80;21194;-57
2021/04/09 04:47:25;;;;;;;2.83;1.87;;;;;;;20.91;48.57;101863.66;1768417;80;21170;-58
2021/04/09 04:49:52;;;;;;;1.82;1.50;;;;;;;20.93;48.52;101869.14;1754679;80;21151;-57
2021/04/09 04:52:18;;;;;;;2.75;1.98;;;;;;;20.95;48.47;101875.78;1771422;80;21197;-57
2021/04/09 04:54:45;;;;;;;3.25;1.67;;;;;;;20.94;48.46;101881.04;1762707;80;21204;-58
2021/04/09 04:57:11;;;;;;;2.98;1.70;;;;;;;20.93;48.42;101880.21;1769184;79;21173;-58
2021/04/09 04:59:38;;;;;;;2.90;1.52;;;;;;;20.93;48.40;101881.59;1768629;79;20967;-58
2021/04/09 05:02:05;;;;;;;3.77;1.65;;;;;;;20.95;48.39;101890.99;1785113;79;21200;-58
2021/04/09 05:04:31;;;;;;;2.95;1.72;;;;;;;20.98;48.37;101891.23;1762537;80;21515;-58
2021/04/09 05:06:58;;;;;;;1.92;1.35;;;;;;;21.01;48.35;101895.89;1775518;80;21180;-58
2021/04/09 05:09:24;;;;;;;3.20;1.45;;;;;;;21.03;48.27;101893.66;1775277;79;21136;-57
2021/04/09 05:11:50;;;;;;;3.17;1.67;;;;;;;21.03;48.23;101903.34;1748487;82;21426;-58
2021/04/09 05:14:17;;;;;;;1.98;1.30;;;;;;;21.02;48.20;101898.92;1739887;81;21206;-58
2021/04/09 05:16:43;;;;;;;2.42;1.50;;;;;;;21.01;48.21;101903.63;1765507;80;22223;-57
2021/04/09 05:19:10;;;;;;;2.65;1.77;;;;;;;21.02;48.19;101906.67;1762333;80;21474;-58
2021/04/09 05:21:37;;;;;;;3.55;2.00;;;;;;;21.05;48.17;101908.84;1745043;80;21497;-58
2021/04/09 05:24:04;;;;;;;2.42;1.60;;;;;;;21.06;48.13;101910.50;1765902;80;21148;-58
2021/04/09 05:26:31;;;;;;;2.20;1.62;;;;;;;21.06;48.08;101917.97;1761785;79;21190;-57
2021/04/09 05:28:57;;;;;;;3.08;2.08;;;;;;;21.05;48.05;101925.45;1764815;80;22145;-57
2021/04/09 05:31:24;;;;;;;3.45;2.22;;;;;;;21.03;48.03;101928.25;1770071;80;21165;-57
2021/04/09 05:33:50;;;;;;;3.60;1.90;;;;;;;21.00;48.02;101923.31;1764775;80;21198;-57
2021/04/09 05:36:17;;;;;;;3.92;1.77;;;;;;;20.99;48.03;101926.64;1777518;79;21150;-56
2021/04/09 05:38:43;;;;;;;2.60;1.72;;;;;;;21.00;48.01;101928.30;1765511;79;21135;-57
2021/04/09 05:41:10;;;;;;;2.40;1.80;;;;;;;21.00;47.97;101931.61;1769888;80;21438;-56
2021/04/09 05:43:36;;;;;;;3.00;1.82;;;;;;;21.00;47.94;101939.36;1761887;80;21191;-57
2021/04/09 05:46:04;;;;;;;2.62;1.95;;;;;;;20.97;47.90;101942.13;1727891;82;21522;-56
2021/04/09 05:48:31;;;;;;;5.03;2.12;;;;;;;20.95;47.87;101939.41;1762135;80;21159;-57
2021/04/09 05:50:58;;;;;;;3.62;2.20;;;;;;;20.91;47.84;101947.47;1714473;81;21601;-57
2021/04/09 05:53:25;;;;;;;2.70;1.92;;;;;;;20.88;47.83;101948.03;1714766;82;23533;-57
2021/04/09 05:55:51;;;;;;;3.33;1.92;;;;;;;20.90;47.81;101954.67;1709288;82;21264;-57
2021/04/09 05:58:18;;;;;;;2.90;1.70;;;;;;;20.90;47.79;101954.67;1701231;83;21606;-57
2021/04/09 06:00:44;;;;;;;3.08;1.87;;;;;;;20.89;47.76;101952.45;1686785;81;21178;-58
2021/04/09 06:03:11;;;;;;;2.62;1.72;;;;;;;20.85;47.70;101955.55;1669443;84;21181;-58
2021/04/09 06:05:38;;;;;;;2.47;1.52;;;;;;;20.83;47.67;101960.55;1706452;82;22371;-58
2021/04/09 06:08:08;;;;;;;2.62;1.87;;;;;;;20.80;47.65;101960.29;1734582;81;21942;-59
2021/04/09 06:10:33;;;;;;;4.95;1.98;;;;;;;20.78;47.67;101963.92;1743834;81;21187;-58
2021/04/09 06:13:00;;;;;;;4.20;2.35;;;;;;;20.77;47.66;101967.24;1744118;82;21134;-58
2021/04/09 06:15:27;;;;;;;3.35;2.00;;;;;;;20.77;47.66;101965.86;1695814;83;21063;-57
2021/04/09 06:17:54;;;;;;;2.50;1.70;;;;;;;20.76;47.62;101968.34;1691281;82;22103;-58
2021/04/09 06:20:20;;;;;;;3.42;1.87;;;;;;;20.75;47.60;101975.58;1729304;82;21538;-58
2021/04/09 06:22:47;;;;;;;3.22;2.20;;;;;;;20.73;47.62;101971.70;1720754;82;21210;-57
2021/04/09 06:25:15;;;;;;;2.83;1.80;;;;;;;20.71;47.60;101975.30;1706272;82;21129;-58
2021/04/09 06:27:41;;;;;;;3.15;1.87;;;;;;;20.72;47.63;101979.73;1705091;82;21193;-57
2021/04/09 06:30:30;;;;;;;2.62;1.72;;;;;;;20.74;47.68;101978.89;1699193;82;21223;-58
2021/04/09 06:32:57;;;;;;;2.17;1.47;;;;;;;20.78;47.67;101985.49;1659895;85;21221;-57
2021/04/09 06:35:24;;;;;;;2.33;1.50;;;;;;;20.82;47.66;101989.33;1653318;85;21167;-58
2021/04/09 06:37:50;;;;;;;2.47;1.50;;;;;;;20.84;47.65;101993.16;1653600;85;21162;-57
2021/04/09 06:40:17;;;;;;;1.92;1.42;;;;;;;20.85;47.64;101991.50;1652462;84;21606;-57
2021/04/09 06:42:44;;;;;;;2.35;1.77;;;;;;;20.86;47.63;101997.31;1658527;85;21581;-58
2021/04/09 06:47:59;;;;;;;1.90;1.30;;;;;;;20.89;47.66;101991.19;1647834;84;21608;-57
2021/04/09 06:50:27;;;;;;;2.98;1.70;;;;;;;20.93;47.65;102001.94;1659088;84;21184;-57
2021/04/09 06:52:56;;;;;;;2.00;1.20;;;;;;;20.95;47.62;102005.25;1656441;85;21617;-58
2021/04/09 06:55:23;;;;;;;2.65;1.60;;;;;;;20.97;47.62;102009.09;1650160;85;21203;-57
2021/04/09 06:57:52;;;;;;;1.57;1.02;;;;;;;20.96;47.62;102005.49;1655205;85;21185;-58
2021/04/09 07:00:26;;;;;;;1.90;1.20;;;;;;;20.96;47.63;102011.61;1662557;85;21618;-57
2021/04/09 07:02:53;;;;;;;1.75;1.30;;;;;;;20.97;47.63;102014.06;1655402;86;21205;-58
2021/04/09 07:05:19;;;;;;;2.72;1.50;;;;;;;21.00;47.64;102010.47;1659215;86;21609;-57
2021/04/09 07:07:46;;;;;;;2.60;1.75;;;;;;;21.00;47.63;102014.06;1651027;86;23552;-58
2021/04/09 07:10:14;;;;;;;3.22;1.62;;;;;;;21.01;47.63;102019.01;1665107;84;21583;-57
2021/04/09 07:12:40;;;;;;;2.42;1.70;;;;;;;21.01;47.63;102021.78;1674085;84;21914;-58
2021/04/09 07:15:16;;;;;;;2.55;1.50;;;;;;;20.97;47.62;102020.98;1681773;84;21189;-58
2021/04/09 07:17:47;;;;;;;2.85;1.80;;;;;;;20.97;47.67;102024.30;1660465;84;21208;-58
2021/04/09 07:20:24;;;;;;;2.90;1.75;;;;;;;20.98;47.69;102030.11;1663209;85;21231;-58
2021/04/09 07:22:53;;;;;;;2.85;1.75;;;;;;;20.97;47.65;102023.75;1676537;84;21204;-57
2021/04/09 07:25:34;;;;;;;3.10;1.75;;;;;;;20.97;47.65;102028.45;1647661;85;21182;-58
2021/04/09 07:28:14;;;;;;;2.50;1.65;;;;;;;20.95;47.65;102030.15;1663890;84;21296;-57
2021/04/09 07:30:51;;;;;;;2.83;2.10;;;;;;;20.93;47.67;102034.30;1648797;85;21187;-58
2021/04/09 07:33:23;;;;;;;2.83;1.60;;;;;;;20.90;47.68;102035.72;1656637;85;21245;-58
2021/04/09 07:36:00;;;;;;;2.25;1.70;;;;;;;20.91;47.71;102037.94;1646971;84;21193;-57
2021/04/09 07:38:32;;;;;;;2.65;1.98;;;;;;;20.92;47.70;102052.02;1691583;82;21616;-58
2021/04/09 07:41:07;;;;;;;2.47;1.90;;;;;;;20.91;47.68;102047.06;1692078;82;21167;-58
2021/04/09 07:43:36;;;;;;;2.52;1.60;;;;;;;20.90;47.66;102053.70;1664687;84;21185;-58
2021/04/09 07:46:05;;;;;;;2.33;1.67;;;;;;;20.88;47.66;102050.94;1681274;80;21577;-58
2021/04/09 07:48:36;;;;;;;2.80;1.82;;;;;;;20.84;47.69;102049.88;1754109;79;21168;-57
2021/04/09 07:51:07;;;;;;;3.27;1.60;;;;;;;20.83;47.70;102051.01;1730859;80;21148;-57
2021/04/09 07:53:37;;;;;;;2.08;1.32;;;;;;;20.83;47.72;102049.63;1726399;82;21610;-57
2021/04/09 07:56:17;;;;;;;3.22;1.70;;;;;;;20.82;47.73;102046.03;1728109;81;21598;-58
2021/04/09 07:58:40;;;;;;;2.92;1.80;;;;;;;20.82;47.73;102047.41;1740453;80;21294;-59
2021/04/09 08:01:25;;;;;;;2.55;1.72;;;;;;;20.79;47.73;102053.50;1730365;80;21666;-59
2021/04/09 08:03:52;;;;;;;3.25;1.77;;;;;;;20.77;47.74;102050.77;1753875;80;21156;-59
2021/04/09 08:06:23;;;;;;;2.47;1.67;;;;;;;20.73;47.76;102044.16;1710977;81;21216;-59
2021/04/09 08:08:57;;;;;;;4.03;1.80;;;;;;;20.74;47.80;102048.59;1709244;83;21169;-59
2021/04/09 08:11:35;;;;;;;2.65;1.67;;;;;;;20.74;47.79;102047.20;1706700;84;21431;-58
2021/04/09 08:14:13;;;;;;;2.83;1.70;;;;;;;20.73;47.78;102047.76;1710101;82;21148;-59
2021/04/09 08:16:49;;;;;;;2.45;1.60;;;;;;;20.72;47.78;102046.66;1720805;82;21463;-59
2021/04/09 08:19:23;;;;;;;3.80;2.05;;;;;;;20.68;47.76;102042.81;1738067;82;21174;-59
2021/04/09 08:21:53;;;;;;;2.22;1.50;;;;;;;20.64;47.79;102046.72;1720073;82;21583;-58
2021/04/09 08:24:22;;;;;;;2.70;1.70;;;;;;;20.63;47.83;102045.61;1714225;82;21210;-59
2021/04/09 08:26:49;;;;;;;1.82;1.40;;;;;;;20.64;47.85;102041.19;1712742;82;21188;-59
2021/04/09 08:29:16;;;;;;;2.62;1.60;;;;;;;20.66;47.87;102043.67;1709201;82;21180;-59
2021/04/09 08:31:43;;;;;;;2.10;1.40;;;;;;;20.67;47.86;102043.37;1705457;82;21659;-59
2021/04/09 08:34:12;;;;;;;2.05;1.60;;;;;;;20.69;47.85;102043.09;1710286;82;21137;-59
2021/04/09 08:36:44;;;;;;;2.98;1.77;;;;;;;20.69;47.86;102044.47;1730257;82;21239;-59
2021/04/09 08:39:17;;;;;;;2.37;1.57;;;;;;;20.68;47.86;102043.64;1711079;82;21173;-59
2021/04/09 08:41:45;;;;;;;2.60;1.65;;;;;;;20.71;47.88;102043.64;1716914;82;21152;-60
2021/04/09 08:44:13;;;;;;;2.60;1.42;;;;;;;20.75;47.88;102048.86;1722861;80;21201;-58
2021/04/09 08:46:40;;;;;;;2.62;1.65;;;;;;;20.79;47.84;102051.31;1713571;81;21190;-58
2021/04/09 08:49:09;;;;;;;1.92;1.42;;;;;;;20.82;47.82;102047.97;1675248;84;21155;-59
2021/04/09 08:51:37;;;;;;;2.90;1.42;;;;;;;20.83;47.79;102042.71;1645473;84;21154;-58
2021/04/09 08:54:18;;;;;;;1.85;1.20;;;;;;;20.82;47.79;102047.41;1667115;84;21672;-59
2021/04/09 08:56:45;;;;;;;2.33;1.50;;;;;;;20.83;47.78;102049.07;1700307;82;21191;-58
2021/04/09 08:59:11;;;;;;;2.05;1.47;;;;;;;20.85;47.79;102048.77;1723585;81;21547;-59
2021/04/09 09:01:38;;;;;;;1.45;0.98;;;;;;;20.90;47.80;102039.05;1712487;81;21272;-59
2021/04/09 09:04:28;;;;;;;2.30;1.27;;;;;;;20.95;47.79;102039.00;1731133;81;21189;-59
2021/04/09 09:06:55;;;;;;;2.17;1.17;;;;;;;21.01;47.73;102036.99;1709364;81;21423;-59
2021/04/09 09:09:29;;;;;;;2.00;1.10;;;;;;;21.03;47.68;102039.75;1702769;82;21909;-58
2021/04/09 09:12:03;;;;;;;3.27;1.20;;;;;;;21.05;47.64;102040.86;1724523;82;21146;-58
2021/04/09 09:14:41;;;;;;;2.35;1.50;;;;;;;21.04;47.65;102043.35;1713429;81;22298;-58
2021/04/09 09:17:28;;;;;;;2.17;1.45;;;;;;;21.03;47.65;102039.75;1747430;81;21159;-59
2021/04/09 09:20:14;;;;;;;1.92;1.52;;;;;;;21.06;47.65;102041.94;1740739;81;21160;-58
2021/04/09 09:22:54;;;;;;;2.02;1.30;;;;;;;21.09;47.63;102046.87;1752023;80;21167;-58
2021/04/09 09:25:37;;;;;;;2.12;1.37;;;;;;;21.11;47.61;102043.83;1702489;83;21158;-59
2021/04/09 09:28:12;;;;;;;1.75;1.27;;;;;;;21.11;47.59;102042.45;1702686;83;21204;-56
2021/04/09 09:30:42;;;;;;;2.42;1.70;;;;;;;21.10;47.60;102042.17;1715838;83;21613;-59
2021/04/09 09:33:24;;;;;;;2.43;1.50;;;;;;;21.11;47.63;102041.89;1724755;81;21213;-58
2021/04/09 09:36:00;;;;;;;2.27;1.50;;;;;;;21.14;47.65;102041.88;1728426;82;21156;-58
2021/04/09 09:38:51;;;;;;;1.70;1.22;;;;;;;21.16;47.62;102045.20;1730898;81;21569;-59
2021/04/09 09:41:32;;;;;;;;;;;;;;;21.18;47.59;102042.95;1710675;82;21196;-57
2021/04/09 09:44:21;;;;;;;1.90;1.47;;;;;;;21.17;47.57;102039.39;1705081;82;20411;-60
2021/04/09 09:47:00;;;;;;;1.52;1.00;;;;;;;21.15;47.58;102034.69;1667185;85;21146;-58
2021/04/09 09:49:28;;;;;;;2.55;1.32;;;;;;;21.18;47.63;102031.88;1671528;85;21159;-58
2021/04/09 09:51:55;;;;;;;2.10;1.32;;;;;;;21.22;47.62;102037.09;1673198;84;21546;-58
2021/04/09 09:54:25;;;;;;;3.37;1.45;;;;;;;21.27;47.58;102027.36;1675147;85;21635;-57
2021/04/09 09:56:52;;;;;;;2.98;1.57;;;;;;;21.28;47.52;102031.79;1678124;83;21194;-58
2021/04/09 09:59:25;;;;;;;3.20;1.07;;;;;;;21.29;47.51;102034.83;1676292;84;21171;-58
2021/04/09 10:01:53;;;;;;;2.50;1.20;;;;;;;21.28;47.50;102033.17;1672689;85;21169;-58
2021/04/09 10:04:20;;;;;;;2.60;1.47;;;;;;;21.27;47.51;102033.73;1664744;85;21152;-58
2021/04/09 10:06:57;;;;;;;2.80;1.40;;;;;;;21.28;47.51;102029.02;1675542;85;21547;-57
2021/04/09 10:09:28;;;;;;;2.33;1.40;;;;;;;21.29;47.51;102027.36;1668545;85;21610;-57
2021/04/09 10:11:56;;;;;;;4.75;1.47;;;;;;;21.30;47.51;102023.45;1669161;85;21653;-57
2021/04/09 10:14:23;;;;;;;3.12;1.27;;;;;;;21.33;47.48;102035.89;1672308;85;21171;-57
2021/04/09 10:16:50;;;;;;;3.30;1.20;;;;;;;21.34;47.47;102027.28;1678737;85;21632;-58
2021/04/09 10:19:16;;;;;;;2.37;1.50;;;;;;;21.34;47.48;102026.48;1674873;83;21211;-57
2021/04/09 10:21:43;;;;;;;3.00;1.35;;;;;;;21.36;47.49;102029.77;1670784;83;21435;-56
2021/04/09 10:24:19;;;;;;;2.35;1.30;;;;;;;21.39;47.46;102024.46;1676046;83;21192;-56
2021/04/09 10:27:00;;;;;;;3.25;1.35;;;;;;;21.43;47.42;102019.74;1670220;83;21681;-57
2021/04/09 10:29:33;;;;;;;3.33;1.60;;;;;;;21.43;47.39;102021.92;1674023;83;21627;-57
2021/04/09 10:32:01;;;;;;;2.10;1.20;;;;;;;21.46;47.39;102021.36;1677112;83;22370;-57
2021/04/09 10:34:34;;;;;;;2.75;1.47;;;;;;;21.46;47.37;102021.36;1664980;85;21215;-57
2021/04/09 10:36:58;;;;;;;2.00;1.30;;;;;;;21.46;47.36;102018.59;1672054;83;21191;-57
2021/04/09 10:39:26;;;;;;;3.37;1.22;;;;;;;21.47;47.36;102016.09;1677399;83;21171;-57
2021/04/09 10:41:54;;;;;;;3.58;1.32;;;;;;;21.51;47.35;102020.48;1668279;83;21291;-56
2021/04/09 10:44:28;;;;;;;2.17;1.12;;;;;;;21.53;47.32;102012.13;1678480;83;21544;-56
2021/04/09 10:47:02;;;;;;;2.15;1.30;;;;;;;21.54;47.28;102007.42;1673689;83;21646;-57
2021/04/09 10:49:37;;;;;;;2.65;1.95;;;;;;;21.53;47.27;102012.13;1673253;84;21320;-57
2021/04/09 10:52:07;;;;;;;3.62;1.20;;;;;;;21.51;47.25;102015.77;1673309;84;21177;-57
2021/04/09 10:54:36;;;;;;;2.45;1.30;;;;;;;21.47;47.25;102005.02;1672108;83;21197;-57
2021/04/09 10:57:15;;;;;;;2.08;1.15;;;;;;;21.44;47.30;102004.20;1679540;83;21242;-57
2021/04/09 10:59:47;;;;;;;2.70;1.12;;;;;;;21.43;47.33;102001.16;1689681;84;21209;-57
2021/04/09 11:02:25;;;;;;;2.55;1.50;;;;;;;21.43;47.33;102006.14;1667037;84;21608;-58
2021/04/09 11:04:55;;;;;;;1.82;1.50;;;;;;;21.42;47.33;102002.30;1677279;83;21564;-56
2021/04/09 11:07:21;;;;;;;2.40;1.37;;;;;;;21.40;47.33;102006.73;1661589;83;21213;-56
2021/04/09 11:09:49;;;;;;;2.72;1.45;;;;;;;21.38;47.33;102006.78;1679876;83;23556;-56
2021/04/09 11:12:22;;;;;;;1.50;1.10;;;;;;;21.37;47.37;102006.50;1678335;84;21232;-56
2021/04/09 11:14:54;;;;;;;1.40;1.00;;;;;;;21.37;47.37;102005.12;1671305;84;21169;-56
2021/04/09 11:17:26;;;;;;;3.40;1.20;;;;;;;21.40;47.37;102007.30;1663060;84;21175;-57
2021/04/09 11:19:56;;;;;;;1.50;1.10;;;;;;;21.43;47.33;101999.77;1677680;84;21178;-57
2021/04/09 11:22:23;;;;;;;3.40;1.20;;;;;;;21.44;47.27;102004.20;1666855;84;21565;-57
2021/04/09 11:25:01;;;;;;;2.25;1.17;;;;;;;21.45;47.25;101993.95;1674681;84;21201;-57
2021/04/09 11:27:31;;;;;;;1.72;1.30;;;;;;;21.45;47.26;101994.78;1668353;83;21151;-57
2021/04/09 11:30:15;;;;;;;1.72;1.10;;;;;;;21.46;47.22;101993.67;1669988;84;21085;-57
2021/04/09 11:32:46;;;;;;;2.55;1.07;;;;;;;21.48;47.22;101991.41;1665362;84;21186;-57
2021/04/09 11:35:13;;;;;;;;;;;;;;;21.50;47.20;101984.20;1677489;83;21213;-57
2021/04/09 11:37:55;;;;;;;1.92;1.20;;;;;;;21.49;47.17;101984.77;1683335;84;20424;-57
2021/04/09 11:40:43;;;;;;;1.90;1.27;;;;;;;21.48;47.18;101985.05;1668662;83;21209;-57
2021/04/09 11:43:11;;;;;;;2.08;1.15;;;;;;;21.46;47.18;101983.15;1676557;84;21207;-58